Time;durP1;ratioP1;P1;durP2;ratioP2;P2;SDS_P1;SDS_P2;PMS_P1;PMS_P2;Temp;Humidity;BMP_temperature;BMP_pressure;BME280_temperature;BME280_humidity;BME280_pressure;Samples;Min_cycle;Max_cycle;Signal;HPM_P1;HPM_P2
2023/08/25 00:02:26;;;;;;;11.50;6.70;;;;;;;15.85;100.00;99618.48;109433;1251;60240;-73
2023/08/25 00:04:54;;;;;;;12.40;6.90;;;;;;;15.84;100.00;99621.76;109446;1251;58945;-74
2023/08/25 00:07:21;;;;;;;10.70;6.30;;;;;;;15.83;100.00;99623.77;109431;1251;73242;-73
2023/08/25 00:09:48;;;;;;;9.90;6.20;;;;;;;15.82;100.00;99620.48;109479;1251;71126;-73
2023/08/25 00:12:16;;;;;;;10.30;5.80;;;;;;;15.80;100.00;99618.79;109385;1252;72438;-72
2023/08/25 00:14:43;;;;;;;13.20;6.20;;;;;;;15.80;100.00;99612.61;109413;1254;60371;-73
2023/08/25 00:17:11;;;;;;;12.10;5.90;;;;;;;15.80;100.00;99613.31;109451;1251;58979;-72
2023/08/25 00:19:38;;;;;;;12.60;6.50;;;;;;;15.79;100.00;99609.33;109417;1251;73421;-73
2023/08/25 00:22:06;;;;;;;15.20;6.10;;;;;;;15.79;100.00;99599.93;109405;1251;71063;-73
2023/08/25 00:24:33;;;;;;;10.60;5.20;;;;;;;15.81;100.00;99594.51;108656;1251;1002293;-74
2023/08/25 00:27:01;;;;;;;11.80;5.70;;;;;;;15.83;100.00;99589.47;109418;1251;59316;-74
2023/08/25 00:29:28;;;;;;;9.30;5.70;;;;;;;15.84;100.00;99583.59;109419;1251;58982;-75
2023/08/25 00:31:56;;;;;;;8.50;5.80;;;;;;;15.84;100.00;99579.98;109404;1251;73358;-72
2023/08/25 00:34:23;;;;;;;10.30;5.80;;;;;;;15.85;100.00;99580.33;109446;1251;70918;-73
2023/08/25 00:36:51;;;;;;;10.10;6.00;;;;;;;15.85;100.00;99576.95;109392;1251;71374;-73
2023/08/25 00:39:19;;;;;;;9.10;5.20;;;;;;;15.85;100.00;99576.08;108624;1251;1002471;-73
2023/08/25 00:41:46;;;;;;;10.90;5.50;;;;;;;15.84;100.00;99571.73;109350;1251;60114;-73
2023/08/25 00:44:14;;;;;;;7.60;5.60;;;;;;;15.82;100.00;99573.75;109421;1251;73134;-72
2023/08/25 00:46:41;;;;;;;6.70;4.60;;;;;;;15.79;100.00;99567.71;109407;1251;70378;-73
2023/08/25 00:49:08;;;;;;;9.70;5.30;;;;;;;15.76;100.00;99564.69;109282;1251;71058;-73
2023/08/25 00:51:36;;;;;;;7.20;4.90;;;;;;;15.75;100.00;99565.27;109095;1251;401233;-73
2023/08/25 00:54:04;;;;;;;9.50;4.90;;;;;;;15.72;100.00;99556.08;109423;1251;60066;-74
2023/08/25 00:56:31;;;;;;;10.60;5.50;;;;;;;15.69;100.00;99558.54;109330;1251;74622;-74
2023/08/25 00:58:59;;;;;;;9.40;4.80;;;;;;;15.65;100.00;99561.22;109397;1251;70727;-74
2023/08/25 01:01:27;;;;;;;13.70;5.20;;;;;;;15.61;100.00;99552.93;109321;1251;72874;-74
2023/08/25 01:03:56;;;;;;;7.30;4.80;;;;;;;15.58;100.00;99556.79;109347;1251;59058;-75
2023/08/25 01:06:23;;;;;;;5.20;4.30;;;;;;;15.57;100.00;99552.27;109456;1251;59090;-75
2023/08/25 01:08:51;;;;;;;7.60;5.20;;;;;;;15.56;100.00;99547.03;109397;1251;74701;-74
2023/08/25 01:11:34;;;;;;;8.50;5.00;;;;;;;15.53;100.00;99548.41;109359;1251;71038;-75
2023/08/25 01:14:29;;;;;;;8.90;5.00;;;;;;;15.51;100.00;99557.36;109407;1251;72658;-74
2023/08/25 01:17:05;;;;;;;7.50;5.00;;;;;;;15.50;100.00;99557.80;109394;1251;58984;-75
2023/08/25 01:19:52;;;;;;;6.30;4.90;;;;;;;15.48;100.00;99557.89;109261;1251;59312;-73
2023/08/25 01:22:33;;;;;;;9.70;4.90;;;;;;;15.46;100.00;99563.15;109414;1251;73440;-73
2023/08/25 01:25:27;;;;;;;9.00;4.80;;;;;;;15.42;100.00;99564.20;109425;1251;69577;-72
2023/08/25 01:27:56;;;;;;;5.10;4.30;;;;;;;15.41;100.00;99569.94;109298;1251;71480;-72
2023/08/25 01:30:24;;;;;;;8.20;5.00;;;;;;;15.40;100.00;99572.98;107855;1251;1002865;-75
2023/08/25 01:32:56;;;;;;;9.50;5.10;;;;;;;15.39;100.00;99567.56;109423;1251;60090;-75
2023/08/25 01:35:41;;;;;;;7.00;4.80;;;;;;;15.39;100.00;99569.69;109421;1251;74195;-73
2023/08/25 01:38:10;;;;;;;7.70;5.10;;;;;;;15.38;100.00;99564.45;109282;1251;70782;-73
2023/08/25 01:40:43;;;;;;;9.50;5.20;;;;;;;15.36;100.00;99562.24;109390;1251;72691;-73
2023/08/25 01:43:11;;;;;;;7.00;4.20;;;;;;;15.34;100.00;99563.80;109394;1251;60346;-73
2023/08/25 01:45:40;;;;;;;5.20;4.40;;;;;;;15.31;100.00;99562.69;109304;1251;58899;-73
2023/08/25 01:48:07;;;;;;;7.20;4.60;;;;;;;15.31;100.00;99563.95;109409;1251;74744;-73
2023/08/25 01:50:35;;;;;;;6.90;4.40;;;;;;;15.29;100.00;99570.61;109201;1251;69525;-72
2023/08/25 01:53:03;;;;;;;6.70;4.20;;;;;;;15.25;100.00;99568.11;109398;1251;72455;-72
2023/08/25 01:55:30;;;;;;;4.90;4.00;;;;;;;15.23;100.00;99570.86;109400;1254;60161;-73
2023/08/25 01:57:58;;;;;;;7.00;4.10;;;;;;;15.21;100.00;99570.84;109362;1251;58954;-75
2023/08/25 02:00:25;;;;;;;5.60;4.30;;;;;;;15.19;100.00;99572.18;109368;1251;74766;-75
2023/08/25 02:02:53;;;;;;;5.50;3.90;;;;;;;15.17;100.00;99570.67;109043;1251;1002489;-75
2023/08/25 02:05:21;;;;;;;7.40;4.40;;;;;;;15.16;100.00;99572.35;109428;1254;71158;-75
2023/08/25 02:07:49;;;;;;;5.40;4.40;;;;;;;15.13;100.00;99567.53;109428;1251;59025;-75
2023/08/25 02:10:20;;;;;;;7.10;4.30;;;;;;;15.11;100.00;99568.52;109403;1251;60565;-75
2023/08/25 02:12:47;;;;;;;7.30;4.40;;;;;;;15.09;100.00;99564.39;108682;1251;1002431;-75
2023/08/25 02:15:15;;;;;;;7.90;4.50;;;;;;;15.07;100.00;99568.00;109403;1251;70649;-75
2023/08/25 02:17:44;;;;;;;8.60;4.40;;;;;;;15.04;100.00;99574.70;109454;1251;72640;-73
2023/08/25 02:20:12;;;;;;;5.80;4.40;;;;;;;15.01;100.00;99574.34;109228;1251;60364;-72
2023/08/25 02:22:40;;;;;;;7.60;4.30;;;;;;;14.99;100.00;99573.19;109374;1251;59127;-72
2023/08/25 02:25:07;;;;;;;5.90;4.00;;;;;;;14.97;100.00;99573.32;108687;1251;1002290;-73
2023/08/25 02:27:35;;;;;;;8.50;4.60;;;;;;;14.94;100.00;99571.52;109410;1251;71139;-73
2023/08/25 02:30:03;;;;;;;9.50;4.30;;;;;;;14.92;100.00;99568.60;109441;1251;72496;-73
2023/08/25 02:32:30;;;;;;;9.20;4.60;;;;;;;14.90;100.00;99565.38;109355;1251;59422;-73
2023/08/25 02:34:58;;;;;;;9.70;4.40;;;;;;;14.88;100.00;99565.49;109407;1251;60039;-73
2023/08/25 02:37:25;;;;;;;7.30;4.80;;;;;;;14.86;100.00;99567.17;109383;1251;74749;-74
2023/08/25 02:39:53;;;;;;;9.40;5.00;;;;;;;14.84;100.00;99568.33;109396;1251;70806;-75
2023/08/25 02:42:20;;;;;;;10.70;5.20;;;;;;;14.83;100.00;99573.33;109402;1251;71933;-75
2023/08/25 02:44:48;;;;;;;11.00;5.20;;;;;;;14.82;100.00;99573.56;109235;1253;59178;-74
2023/08/25 02:47:15;;;;;;;16.00;4.90;;;;;;;14.79;100.00;99577.59;109287;1251;59314;-75
2023/08/25 02:49:43;;;;;;;13.20;4.90;;;;;;;14.77;100.00;99579.65;109299;1251;74697;-74
2023/08/25 02:52:10;;;;;;;6.70;4.60;;;;;;;14.74;100.00;99584.71;109433;1251;71111;-75
2023/08/25 02:54:37;;;;;;;8.80;4.60;;;;;;;14.72;100.00;99581.83;108663;1251;1002702;-75
2023/08/25 02:57:05;;;;;;;9.10;4.80;;;;;;;14.70;100.00;99585.26;109296;1251;61667;-75
2023/08/25 02:59:34;;;;;;;10.80;5.60;;;;;;;14.66;100.00;99588.46;109436;1251;60014;-72
2023/08/25 03:02:01;;;;;;;7.70;4.80;;;;;;;14.64;100.00;99589.46;109350;1251;74620;-72
2023/08/25 03:04:29;;;;;;;7.00;4.50;;;;;;;14.63;100.00;99590.21;109360;1251;71328;-72
2023/08/25 03:06:57;;;;;;;9.30;5.00;;;;;;;14.63;100.00;99594.45;109275;1251;71328;-72
2023/08/25 03:09:24;;;;;;;8.20;4.50;;;;;;;14.61;100.00;99592.98;109273;1251;59004;-73
2023/08/25 03:11:51;;;;;;;13.40;5.30;;;;;;;14.60;100.00;99596.73;109430;1251;59024;-73
2023/08/25 03:14:19;;;;;;;8.20;4.70;;;;;;;14.60;100.00;99598.16;109364;1251;74615;-73
2023/08/25 03:16:48;;;;;;;9.30;5.00;;;;;;;14.59;100.00;99597.51;109395;1251;70992;-72
2023/08/25 03:19:16;;;;;;;9.60;5.30;;;;;;;14.58;100.00;99603.02;109294;1251;71421;-72
2023/08/25 03:21:43;;;;;;;10.10;5.00;;;;;;;14.57;100.00;99602.51;109393;1251;60089;-72
2023/08/25 03:24:11;;;;;;;12.90;5.60;;;;;;;14.57;100.00;99606.23;109455;1251;58945;-72
2023/08/25 03:26:39;;;;;;;9.00;5.20;;;;;;;14.57;100.00;99611.32;109379;1251;75113;-73
2023/08/25 03:29:06;;;;;;;10.50;4.80;;;;;;;14.58;100.00;99612.53;109385;1251;69982;-72
2023/08/25 03:31:35;;;;;;;9.00;5.20;;;;;;;14.58;100.00;99613.42;109276;1254;72671;-73
2023/08/25 03:34:02;;;;;;;9.80;5.90;;;;;;;14.59;100.00;99613.02;109369;1251;59060;-73
2023/08/25 03:36:30;;;;;;;14.90;6.00;;;;;;;14.60;100.00;99612.27;109345;1251;60070;-72
2023/08/25 03:38:57;;;;;;;9.00;5.20;;;;;;;14.63;100.00;99618.27;109436;1251;73622;-72
2023/08/25 03:41:25;;;;;;;10.70;5.30;;;;;;;14.65;100.00;99625.96;109264;1251;69980;-72
2023/08/25 03:43:53;;;;;;;10.90;5.60;;;;;;;14.67;100.00;99628.70;109407;1251;72790;-72
2023/08/25 03:46:20;;;;;;;12.00;5.30;;;;;;;14.69;100.00;99633.36;109255;1251;59413;-72
2023/08/25 03:48:48;;;;;;;10.50;5.30;;;;;;;14.72;100.00;99632.16;109425;1251;58912;-75
2023/08/25 03:51:15;;;;;;;11.60;5.90;;;;;;;14.77;100.00;99642.15;109406;1251;74637;-73
2023/08/25 03:53:43;;;;;;;16.30;7.30;;;;;;;14.82;100.00;99646.67;109324;1251;70937;-75
2023/08/25 03:56:11;;;;;;;22.70;9.60;;;;;;;14.88;100.00;99649.73;109379;1252;72693;-75
2023/08/25 03:58:39;;;;;;;27.10;11.20;;;;;;;14.94;100.00;99656.67;109435;1251;61833;-73
2023/08/25 04:01:08;;;;;;;17.50;9.30;;;;;;;14.98;100.00;99657.35;109448;1251;60015;-72
2023/08/25 04:03:37;;;;;;;20.60;8.20;;;;;;;15.02;100.00;99659.44;109253;1251;73303;-73
2023/08/25 04:06:05;;;;;;;21.60;8.40;;;;;;;15.06;100.00;99656.73;109396;1251;71126;-73
2023/08/25 04:08:32;;;;;;;21.20;9.80;;;;;;;15.11;100.00;99657.73;109287;1253;73145;-72
2023/08/25 04:10:59;;;;;;;25.30;8.10;;;;;;;15.17;100.00;99658.86;109364;1251;62300;-72
2023/08/25 04:13:27;;;;;;;18.50;7.50;;;;;;;15.23;100.00;99661.21;109398;1251;59011;-73
2023/08/25 04:15:56;;;;;;;17.10;7.30;;;;;;;15.29;100.00;99663.73;109440;1251;74675;-75
2023/08/25 04:18:24;;;;;;;17.50;6.70;;;;;;;15.35;100.00;99667.67;109297;1251;69782;-73
2023/08/25 04:20:52;;;;;;;16.10;6.90;;;;;;;15.41;100.00;99668.55;109281;1251;72450;-73
2023/08/25 04:23:19;;;;;;;20.40;7.40;;;;;;;15.49;100.00;99673.65;109354;1252;60581;-72
2023/08/25 04:25:47;;;;;;;16.10;7.00;;;;;;;15.57;100.00;99676.59;109301;1251;59038;-73
2023/08/25 04:28:14;;;;;;;14.60;7.80;;;;;;;15.64;100.00;99673.36;109345;1251;74655;-73
2023/08/25 04:30:42;;;;;;;15.80;7.10;;;;;;;15.72;100.00;99674.21;109355;1251;69687;-73
2023/08/25 04:33:21;;;;;;;18.10;7.20;;;;;;;15.79;100.00;99673.68;109270;1251;71070;-74
2023/08/25 04:35:48;;;;;;;20.70;8.00;;;;;;;15.87;100.00;99675.53;109245;1251;60040;-73
2023/08/25 04:38:16;;;;;;;22.70;6.60;;;;;;;15.94;100.00;99677.96;109378;1251;59974;-73
2023/08/25 04:40:44;;;;;;;21.70;7.30;;;;;;;16.03;100.00;99681.07;109375;1251;73451;-73
2023/08/25 04:43:13;;;;;;;21.10;7.30;;;;;;;16.10;100.00;99678.90;109263;1250;71687;-73
2023/08/25 04:45:40;;;;;;;16.90;6.60;;;;;;;16.19;100.00;99675.73;109317;1251;73655;-73
2023/08/25 04:48:08;;;;;;;28.20;7.90;;;;;;;16.28;100.00;99669.23;109288;1251;58984;-74
2023/08/25 04:50:37;;;;;;;17.20;7.10;;;;;;;16.38;100.00;99669.06;109283;1251;60078;-74
2023/08/25 04:53:06;;;;;;;17.10;6.10;;;;;;;16.48;100.00;99665.85;109339;1251;74571;-73
2023/08/25 04:55:35;;;;;;;11.60;5.80;;;;;;;16.58;100.00;99659.26;109356;1251;70769;-73
2023/08/25 04:58:03;;;;;;;14.30;6.10;;;;;;;16.67;100.00;99662.42;109294;1251;72248;-73
2023/08/25 05:00:31;;;;;;;23.70;8.70;;;;;;;16.79;100.00;99662.67;109283;1251;58969;-74
2023/08/25 05:02:58;;;;;;;23.60;7.70;;;;;;;16.89;100.00;99659.98;109280;1251;58916;-73
2023/08/25 05:05:26;;;;;;;24.20;8.80;;;;;;;17.00;100.00;99664.11;109270;1251;74754;-74
2023/08/25 05:07:55;;;;;;;27.90;10.70;;;;;;;17.10;100.00;99659.83;109286;1251;71249;-74
2023/08/25 05:10:23;;;;;;;35.20;11.40;;;;;;;17.20;100.00;99659.73;108520;1253;1002266;-73
2023/08/25 05:12:50;;;;;;;34.40;11.30;;;;;;;17.30;100.00;99652.77;109444;1251;59070;-73
2023/08/25 05:15:18;;;;;;;30.40;10.50;;;;;;;17.40;100.00;99648.23;109309;1251;59990;-73
2023/08/25 05:17:46;;;;;;;23.60;9.20;;;;;;;17.53;100.00;99648.85;109299;1251;74856;-74
2023/08/25 05:20:17;;;;;;;24.00;10.00;;;;;;;17.65;100.00;99644.95;109299;1251;71641;-73
2023/08/25 05:22:44;;;;;;;38.50;10.90;;;;;;;17.75;100.00;99639.34;109074;1251;72513;-74
2023/08/25 05:25:12;;;;;;;27.40;10.00;;;;;;;17.87;100.00;99635.25;109335;1251;58981;-74
2023/08/25 05:27:40;;;;;;;33.20;12.90;;;;;;;17.99;100.00;99630.80;109305;1251;60038;-73
2023/08/25 05:30:08;;;;;;;43.20;12.60;;;;;;;18.10;100.00;99624.57;109375;1251;74022;-73
2023/08/25 05:32:36;;;;;;;30.50;9.90;;;;;;;18.24;100.00;99628.30;109305;1251;70828;-74
2023/08/25 05:35:07;;;;;;;19.40;6.90;;;;;;;18.38;100.00;99629.56;109417;1251;72461;-74
2023/08/25 05:37:35;;;;;;;18.40;6.50;;;;;;;18.51;100.00;99626.73;109234;1251;60228;-73
2023/08/25 05:40:05;;;;;;;25.60;6.20;;;;;;;18.60;100.00;99623.83;109403;1251;60546;-74
2023/08/25 05:42:35;;;;;;;17.90;5.70;;;;;;;18.69;100.00;99626.80;109288;1251;74638;-74
2023/08/25 05:45:03;;;;;;;15.20;5.90;;;;;;;18.78;100.00;99624.09;109317;1251;70807;-73
2023/08/25 05:47:31;;;;;;;15.60;5.40;;;;;;;18.85;100.00;99619.34;109266;1251;72521;-73
2023/08/25 05:49:58;;;;;;;13.30;5.10;;;;;;;18.94;100.00;99620.04;108611;1251;1002546;-74
2023/08/25 05:52:26;;;;;;;11.40;5.20;;;;;;;19.01;100.00;99613.11;109397;1251;60110;-74
2023/08/25 05:54:53;;;;;;;14.60;6.00;;;;;;;19.08;100.00;99612.45;109320;1251;74693;-74
2023/08/25 05:57:21;;;;;;;12.10;5.80;;;;;;;19.16;100.00;99612.81;109450;1251;70923;-73
2023/08/25 05:59:48;;;;;;;10.70;6.00;;;;;;;19.26;100.00;99607.70;109436;1251;71802;-73
2023/08/25 06:02:16;;;;;;;15.70;5.30;;;;;;;19.36;100.00;99611.45;109327;1251;59136;-74
2023/08/25 06:04:43;;;;;;;12.40;4.40;;;;;;;19.48;100.00;99610.06;109404;1252;59151;-73
2023/08/25 06:07:11;;;;;;;10.10;4.30;;;;;;;19.59;100.00;99607.54;109405;1251;74671;-74
2023/08/25 06:09:38;;;;;;;8.10;3.40;;;;;;;19.68;100.00;99603.51;109395;1251;70816;-74
2023/08/25 06:12:06;;;;;;;21.00;4.00;;;;;;;19.77;100.00;99606.30;109402;1251;72773;-73
2023/08/25 06:14:35;;;;;;;10.20;3.90;;;;;;;19.87;100.00;99611.65;109399;1252;60603;-74
2023/08/25 06:17:02;;;;;;;21.20;5.60;;;;;;;19.96;100.00;99609.38;109392;1251;60475;-73
2023/08/25 06:19:30;;;;;;;6.50;3.60;;;;;;;20.04;100.00;99609.70;109436;1251;75146;-73
2023/08/25 06:21:58;;;;;;;9.90;3.90;;;;;;;20.10;100.00;99608.77;109380;1251;71307;-74
2023/08/25 06:24:26;;;;;;;11.30;3.20;;;;;;;20.17;100.00;99612.87;109406;1252;72377;-73
2023/08/25 06:26:53;;;;;;;14.80;4.10;;;;;;;20.25;100.00;99609.95;109428;1251;60024;-74
2023/08/25 06:29:21;;;;;;;11.40;4.00;;;;;;;20.31;100.00;99610.56;109444;1251;58938;-75
2023/08/25 06:31:48;;;;;;;11.70;3.70;;;;;;;20.37;100.00;99610.98;109492;1251;74660;-74
2023/08/25 06:34:16;;;;;;;8.00;3.70;;;;;;;20.46;100.00;99605.39;109409;1251;71998;-74
2023/08/25 06:36:43;;;;;;;5.70;3.30;;;;;;;20.54;100.00;99604.63;109394;1253;71252;-74
2023/08/25 06:39:11;;;;;;;9.40;3.60;;;;;;;20.63;100.00;99600.07;109425;1251;59226;-74
2023/08/25 06:41:38;;;;;;;6.70;3.60;;;;;;;20.74;100.00;99596.70;109397;1251;59210;-74
2023/08/25 06:44:07;;;;;;;12.40;3.30;;;;;;;20.89;100.00;99589.53;109310;1251;73343;-74
2023/08/25 06:46:35;;;;;;;8.40;3.50;;;;;;;21.02;100.00;99588.33;109375;1251;69627;-74
2023/08/25 06:49:02;;;;;;;11.40;3.90;;;;;;;21.18;100.00;99591.98;109400;1251;71420;-73
2023/08/25 06:51:29;;;;;;;18.80;5.70;;;;;;;21.31;100.00;99590.76;109410;1251;59785;-74
2023/08/25 06:54:01;;;;;;;13.70;4.20;;;;;;;21.47;100.00;99588.81;109446;1251;60010;-73
2023/08/25 06:56:31;;;;;;;18.20;3.90;;;;;;;21.61;100.00;99588.09;109411;1251;74667;-74
2023/08/25 06:58:59;;;;;;;9.40;3.70;;;;;;;21.75;100.00;99586.98;109465;1251;69975;-75
2023/08/25 07:01:26;;;;;;;18.30;4.90;;;;;;;21.88;100.00;99585.94;109426;1252;71153;-74
2023/08/25 07:03:54;;;;;;;27.50;6.60;;;;;;;22.01;100.00;99578.97;109415;1251;60213;-74
2023/08/25 07:06:21;;;;;;;29.40;7.10;;;;;;;22.18;100.00;99584.77;109430;1252;59480;-74
2023/08/25 07:08:48;;;;;;;24.20;7.30;;;;;;;22.33;100.00;99574.61;109406;1251;74547;-74
2023/08/25 07:11:16;;;;;;;16.20;5.70;;;;;;;22.50;100.00;99573.58;109431;1251;71423;-73
2023/08/25 07:13:43;;;;;;;16.50;4.90;;;;;;;22.63;100.00;99567.66;109424;1251;72805;-73
2023/08/25 07:16:11;;;;;;;20.20;5.60;;;;;;;22.78;100.00;99570.17;109392;1251;59302;-74
2023/08/25 07:18:38;;;;;;;26.40;6.60;;;;;;;22.90;100.00;99565.55;109396;1251;59046;-74
2023/08/25 07:21:06;;;;;;;26.30;6.30;;;;;;;22.96;100.00;99562.96;109417;1251;65848;-74
2023/08/25 07:23:34;;;;;;;14.80;5.40;;;;;;;22.98;100.00;99561.27;109370;1251;70951;-74
2023/08/25 07:26:01;;;;;;;14.60;5.50;;;;;;;23.06;100.00;99562.65;109419;1253;71825;-74
2023/08/25 07:28:29;;;;;;;24.60;5.90;;;;;;;23.14;100.00;99560.16;109385;1251;59346;-74
2023/08/25 07:30:59;;;;;;;19.00;4.70;;;;;;;23.21;100.00;99559.95;109411;1251;59122;-74
2023/08/25 07:33:26;;;;;;;10.20;2.70;;;;;;;23.29;100.00;99559.00;109468;1251;74721;-73
2023/08/25 07:35:54;;;;;;;14.80;2.80;;;;;;;23.40;100.00;99559.73;109408;1251;71113;-74
2023/08/25 07:38:21;;;;;;;11.30;2.60;;;;;;;23.46;100.00;99557.78;109429;1251;71462;-74
2023/08/25 07:40:49;;;;;;;11.60;2.20;;;;;;;23.50;100.00;99564.70;109391;1251;59091;-74
2023/08/25 07:43:16;;;;;;;3.70;1.80;;;;;;;23.49;100.00;99564.86;109409;1251;59443;-74
2023/08/25 07:45:44;;;;;;;6.30;2.10;;;;;;;23.49;100.00;99564.27;109439;1251;74619;-74
2023/08/25 07:48:11;;;;;;;10.20;2.10;;;;;;;23.50;100.00;99560.05;109446;1251;70089;-75
2023/08/25 07:50:39;;;;;;;2.80;1.70;;;;;;;23.54;100.00;99554.88;109385;1251;72400;-74
2023/08/25 07:53:06;;;;;;;8.70;2.10;;;;;;;23.59;100.00;99552.14;109402;1251;60246;-74
2023/08/25 07:55:39;;;;;;;6.00;2.40;;;;;;;23.62;100.00;99551.34;109404;1251;58919;-74
2023/08/25 07:58:07;;;;;;;4.30;1.70;;;;;;;23.70;100.00;99551.29;109417;1251;74676;-73
2023/08/25 08:00:37;;;;;;;2.40;2.10;;;;;;;23.86;100.00;99550.54;109359;1251;71217;-75
2023/08/25 08:03:11;;;;;;;6.20;2.10;;;;;;;23.99;100.00;99550.01;109411;1251;71140;-74
2023/08/25 08:05:38;;;;;;;6.70;2.30;;;;;;;24.12;100.00;99541.51;109404;1251;59394;-74
2023/08/25 08:08:06;;;;;;;4.70;2.10;;;;;;;24.23;100.00;99533.00;109440;1251;58911;-74
2023/08/25 08:10:34;;;;;;;9.20;2.40;;;;;;;24.30;100.00;99536.69;109421;1250;74698;-75
2023/08/25 08:13:02;;;;;;;7.00;2.00;;;;;;;24.33;100.00;99533.02;109425;1251;69494;-74
2023/08/25 08:15:30;;;;;;;8.00;2.50;;;;;;;24.32;100.00;99538.98;109409;1251;71233;-75
2023/08/25 08:17:58;;;;;;;9.00;2.30;;;;;;;24.33;100.00;99539.23;109420;1251;60106;-73
2023/08/25 08:20:27;;;;;;;7.40;1.90;;;;;;;24.39;100.00;99545.89;109408;1251;59989;-73
2023/08/25 08:22:54;;;;;;;8.00;2.30;;;;;;;24.45;100.00;99547.10;109449;1251;74652;-75
2023/08/25 08:25:23;;;;;;;7.50;2.00;;;;;;;24.50;100.00;99551.89;109388;1251;71250;-73
2023/08/25 08:27:51;;;;;;;7.20;2.30;;;;;;;24.51;100.00;99550.34;109431;1251;71454;-74
2023/08/25 08:30:19;;;;;;;9.30;2.70;;;;;;;24.56;100.00;99542.34;109414;1251;60114;-73
2023/08/25 08:32:46;;;;;;;5.00;2.30;;;;;;;24.70;100.00;99549.67;109410;1251;59323;-74
2023/08/25 08:35:14;;;;;;;6.90;2.00;;;;;;;24.86;100.00;99550.52;109420;1251;74634;-74
2023/08/25 08:37:41;;;;;;;6.30;1.90;;;;;;;24.97;100.00;99548.59;109458;1251;71103;-75
2023/08/25 08:40:09;;;;;;;4.60;2.30;;;;;;;25.06;100.00;99549.20;109434;1251;71393;-74
2023/08/25 08:42:37;;;;;;;3.80;2.00;;;;;;;25.11;100.00;99555.70;109347;1251;60071;-75
2023/08/25 08:45:08;;;;;;;10.00;2.80;;;;;;;25.16;100.00;99552.14;109420;1251;59970;-75
2023/08/25 08:47:36;;;;;;;6.20;1.90;;;;;;;25.18;100.00;99553.38;109414;1251;65740;-74
2023/08/25 08:50:06;;;;;;;8.10;2.60;;;;;;;25.20;100.00;99551.77;109478;1251;71159;-74
2023/08/25 08:52:34;;;;;;;7.30;2.10;;;;;;;25.23;100.00;99554.59;109412;1251;63851;-74
2023/08/25 08:55:05;;;;;;;11.00;2.10;;;;;;;25.31;100.00;99551.14;109412;1251;58986;-75
2023/08/25 08:57:33;;;;;;;6.00;2.00;;;;;;;25.41;100.00;99547.29;109396;1251;59392;-74
2023/08/25 09:00:03;;;;;;;6.40;1.80;;;;;;;25.55;100.00;99550.84;109434;1251;73372;-75
2023/08/25 09:02:32;;;;;;;2.90;2.00;;;;;;;25.64;100.00;99539.16;109444;1251;71315;-74
2023/08/25 09:05:00;;;;;;;5.30;1.50;;;;;;;25.68;100.00;99534.54;109422;1251;71444;-74
2023/08/25 09:07:30;;;;;;;7.20;1.90;;;;;;;25.78;100.00;99536.53;109427;1251;60192;-73
2023/08/25 09:10:00;;;;;;;2.30;1.50;;;;;;;25.88;100.00;99533.90;109404;1251;59259;-74
2023/08/25 09:12:29;;;;;;;6.00;1.90;;;;;;;25.98;100.00;99534.51;109454;1251;73349;-74
2023/08/25 09:14:57;;;;;;;4.70;1.30;;;;;;;26.00;100.00;99536.61;109398;1251;71008;-74
2023/08/25 09:17:24;;;;;;;2.90;1.80;;;;;;;26.04;100.00;99529.71;109398;1251;72647;-74
2023/08/25 09:19:53;;;;;;;3.90;1.40;;;;;;;26.15;100.00;99524.84;109442;1251;60070;-75
2023/08/25 09:22:20;;;;;;;5.70;1.90;;;;;;;26.31;100.00;99519.52;109353;1251;59018;-75
2023/08/25 09:24:48;;;;;;;13.30;1.70;;;;;;;26.38;99.48;99523.33;109414;1251;75077;-73
2023/08/25 09:27:26;;;;;;;2.60;1.40;;;;;;;26.33;99.32;99518.88;109425;1251;69756;-74
2023/08/25 09:30:04;;;;;;;6.60;1.60;;;;;;;26.26;99.60;99516.52;109420;1251;71440;-74
2023/08/25 09:32:32;;;;;;;9.90;2.30;;;;;;;26.29;100.00;99512.64;109419;1251;59333;-74
2023/08/25 09:35:13;;;;;;;11.00;1.80;;;;;;;26.41;100.00;99514.19;109424;1251;59030;-74
2023/08/25 09:37:45;;;;;;;6.70;2.20;;;;;;;26.51;99.15;99517.69;109431;1251;74683;-75
2023/08/25 09:40:13;;;;;;;3.20;1.50;;;;;;;26.56;98.37;99510.66;109439;1251;71591;-75
2023/08/25 09:42:41;;;;;;;5.10;2.10;;;;;;;26.68;99.56;99506.27;109384;1252;72729;-74
2023/08/25 09:45:10;;;;;;;9.20;1.90;;;;;;;26.79;98.67;99512.87;109400;1251;60198;-74
2023/08/25 09:47:38;;;;;;;4.90;2.20;;;;;;;26.91;97.91;99507.52;108710;1251;1002207;-73
2023/08/25 09:50:06;;;;;;;3.80;2.40;;;;;;;27.06;99.80;99506.70;109431;1251;74642;-74
2023/08/25 09:52:34;;;;;;;4.40;1.50;;;;;;;27.29;99.62;99511.13;109427;1251;71598;-74
2023/08/25 09:55:02;;;;;;;4.00;1.60;;;;;;;27.49;86.16;99510.30;109338;1251;72493;-74
2023/08/25 09:57:30;;;;;;;3.50;1.70;;;;;;;27.58;90.59;99498.52;109325;1251;60037;-73
2023/08/25 09:59:57;;;;;;;4.30;1.80;;;;;;;27.69;89.58;99500.84;109231;1251;59289;-74
2023/08/25 10:02:25;;;;;;;7.30;1.60;;;;;;;27.69;77.60;99504.02;109391;1251;74583;-75
2023/08/25 10:04:54;;;;;;;9.60;1.50;;;;;;;27.62;84.78;99498.36;109364;1251;69982;-74
2023/08/25 10:07:22;;;;;;;3.90;1.60;;;;;;;27.61;79.11;99495.13;109395;1252;72507;-75
2023/08/25 10:09:50;;;;;;;10.70;1.70;;;;;;;27.56;83.37;99494.30;109328;1251;59414;-75
2023/08/25 10:12:17;;;;;;;7.10;1.60;;;;;;;27.50;85.70;99493.17;109456;1251;58951;-74
2023/08/25 10:14:44;;;;;;;3.00;1.50;;;;;;;27.49;87.93;99495.33;109351;1251;74836;-73
2023/08/25 10:17:13;;;;;;;5.90;1.80;;;;;;;27.58;84.46;99500.29;109372;1251;69976;-74
2023/08/25 10:19:40;;;;;;;4.90;1.70;;;;;;;27.62;79.19;99500.98;109341;1251;72528;-75
2023/08/25 10:22:08;;;;;;;4.50;2.40;;;;;;;27.65;74.56;99500.17;109356;1251;59257;-74
2023/08/25 10:24:35;;;;;;;5.60;1.60;;;;;;;27.67;80.56;99499.04;109434;1252;59640;-74
2023/08/25 10:27:03;;;;;;;6.40;1.40;;;;;;;27.75;81.08;99495.42;109395;1251;73034;-74
2023/08/25 10:29:30;;;;;;;8.00;1.70;;;;;;;27.80;77.92;99499.83;109413;1251;70961;-75
2023/08/25 10:31:59;;;;;;;4.60;3.30;;;;;;;27.80;74.68;99498.58;109253;1251;62951;-75
2023/08/25 10:34:43;;;;;;;4.90;3.40;;;;;;;27.76;77.98;99494.95;109449;1252;60657;-74
2023/08/25 10:37:12;;;;;;;2.30;2.10;;;;;;;27.82;82.97;99495.30;109407;1251;59131;-74
2023/08/25 10:39:56;;;;;;;1.80;1.50;;;;;;;27.91;79.27;99492.30;109431;1251;65695;-74
2023/08/25 10:42:30;;;;;;;2.90;1.50;;;;;;;27.96;75.29;99491.41;109502;1251;60923;-74
2023/08/25 10:45:10;;;;;;;8.40;1.50;;;;;;;28.01;73.45;99492.00;109450;1252;63771;-74
2023/08/25 10:47:42;;;;;;;3.40;1.40;;;;;;;28.05;68.67;99491.19;109424;1253;60078;-74
2023/08/25 10:50:10;;;;;;;4.60;1.40;;;;;;;28.05;68.18;99496.97;109425;1251;60259;-74
2023/08/25 10:52:44;;;;;;;6.40;1.60;;;;;;;28.04;66.21;99495.43;109436;1251;66184;-75
2023/08/25 10:55:32;;;;;;;2.60;1.30;;;;;;;28.01;75.37;99489.52;109437;1251;71093;-75
2023/08/25 10:58:04;;;;;;;1.60;1.40;;;;;;;28.14;71.58;99483.90;109394;1252;73188;-73
2023/08/25 11:00:33;;;;;;;6.10;1.70;;;;;;;28.36;67.85;99484.02;109391;1251;60069;-73
2023/08/25 11:03:03;;;;;;;4.30;1.30;;;;;;;28.47;64.64;99485.17;109431;1252;59013;-74
2023/08/25 11:05:34;;;;;;;2.50;1.50;;;;;;;28.46;62.63;99486.59;109424;1251;65529;-73
2023/08/25 11:08:03;;;;;;;4.70;1.40;;;;;;;28.38;62.86;99483.34;109343;1251;71142;-74
2023/08/25 11:10:33;;;;;;;2.20;1.30;;;;;;;28.35;65.18;99482.23;109425;1253;63777;-74
2023/08/25 11:13:07;;;;;;;5.80;1.20;;;;;;;28.31;64.23;99481.41;109388;1252;60061;-74
2023/08/25 11:15:37;;;;;;;4.80;1.60;;;;;;;28.21;63.13;99482.59;109400;1253;59064;-73
2023/08/25 11:18:05;;;;;;;2.10;1.30;;;;;;;28.11;66.91;99476.15;109443;1251;73455;-75
2023/08/25 11:20:44;;;;;;;3.60;1.50;;;;;;;28.21;69.09;99471.73;109422;1251;70381;-74
2023/08/25 11:23:11;;;;;;;7.30;2.00;;;;;;;28.45;68.89;99471.64;109397;1251;65636;-76